Alliance, Nebraska
Current Conditions -  °F | °C
As of 8:53 PM on Saturday 22 Nov 2014 (Local Time) from KAIA Reporting Station
Broken Clouds Broken Clouds  
Wind Chill: 33°   Ceiling: 11000
Heat Index: 39°   Visibility: 10mi
Dew Point: 29°   Wind: 9mph
Humidity: 67%   Direction: 220°SW
Pressure: 29.48"   Gusts: NA
Location:  42.1°N, 102.87°W
Report Text: KAIA 230353Z AUTO 22008KT 10SM BKN110 04/M02 A2948 RMK AO2 SLP977 T00391017
Loading
Personal Weather Stations






























Interactive Weather Map New forecast layout! Learn more

10-Day Weather Forecast

Advertisements
Track Severe Weather on mobile